Time;durP1;ratioP1;P1;durP2;ratioP2;P2;SDS_P1;SDS_P2;PMS_P1;PMS_P2;Temp;Humidity;BMP_temperature;BMP_pressure;BME280_temperature;BME280_humidity;BME280_pressure;Samples;Min_cycle;Max_cycle;Signal;HPM_P1;HPM_P2
2022/12/22 03:27:44;;;;;;;12.77;7.47;;;;;;;2.54;100.00;100023.69;4939734;28;20596;-67
2022/12/22 03:30:11;;;;;;;12.37;7.47;;;;;;;2.62;100.00;100018.53;4936992;28;20211;-69
2022/12/22 03:32:39;;;;;;;13.23;7.80;;;;;;;2.66;100.00;100007.38;4938878;28;20210;-69
2022/12/22 03:35:06;;;;;;;13.80;7.73;;;;;;;2.66;100.00;100009.94;4937617;28;20226;-68
2022/12/22 03:37:33;;;;;;;11.77;7.57;;;;;;;2.68;100.00;100002.22;4958341;28;20547;-69
2022/12/22 03:39:59;;;;;;;14.27;7.13;;;;;;;2.71;100.00;99999.63;4941773;28;20203;-68
2022/12/22 03:47:55;;;;;;;13.33;7.60;;;;;;;2.84;100.00;99984.09;4934736;28;20981;-68
2022/12/22 03:50:22;;;;;;;15.40;7.70;;;;;;;2.89;100.00;99973.78;4943691;28;20214;-68
2022/12/22 03:52:48;;;;;;;12.47;7.67;;;;;;;2.93;100.00;99967.75;4939357;28;20211;-69
2022/12/22 03:55:14;;;;;;;14.03;7.57;;;;;;;2.96;100.00;99965.16;4941505;28;20235;-69
2022/12/22 03:57:41;;;;;;;11.83;7.67;;;;;;;2.99;100.00;99977.16;4936211;28;20222;-69
2022/12/22 04:00:08;;;;;;;13.03;7.27;;;;;;;3.03;100.00;99966.00;4942859;28;20199;-69
2022/12/22 04:02:38;;;;;;;12.23;7.63;;;;;;;3.09;100.00;99972.81;4935317;28;20686;-69
2022/12/22 04:05:07;;;;;;;16.20;8.03;;;;;;;3.09;100.00;99978.81;4936711;28;20293;-69
2022/12/22 04:07:33;;;;;;;13.43;7.73;;;;;;;3.11;100.00;99971.94;4935893;28;20518;-69
2022/12/22 04:12:55;;;;;;;12.20;7.30;;;;;;;3.18;100.00;99962.47;4929532;28;20210;-68
2022/12/22 04:15:23;;;;;;;13.07;7.67;;;;;;;3.18;100.00;99955.59;4939459;28;20374;-68
2022/12/22 04:17:50;;;;;;;11.37;7.17;;;;;;;3.20;100.00;99961.59;4937587;28;20225;-69
2022/12/22 04:20:19;;;;;;;12.43;7.60;;;;;;;3.21;100.00;99957.28;4935387;28;20652;-67
2022/12/22 04:22:45;;;;;;;12.07;7.57;;;;;;;3.25;100.00;99950.41;4935686;28;20211;-69
2022/12/22 04:25:12;;;;;;;11.77;7.60;;;;;;;3.28;100.00;99945.22;4936549;28;20231;-69
2022/12/22 04:27:39;;;;;;;12.37;8.20;;;;;;;3.28;100.00;99928.03;4939151;28;20193;-69
2022/12/22 04:30:07;;;;;;;12.07;7.60;;;;;;;3.30;100.00;99930.63;4955399;28;20254;-69
2022/12/22 04:32:34;;;;;;;11.20;6.97;;;;;;;3.30;100.00;99939.19;4941071;28;20206;-68
2022/12/22 04:35:01;;;;;;;11.87;7.50;;;;;;;3.32;100.00;99939.19;4938698;28;20216;-69
2022/12/22 04:37:28;;;;;;;10.37;6.53;;;;;;;3.33;100.00;99936.59;4937326;28;20569;-68
2022/12/22 04:39:54;;;;;;;14.43;7.87;;;;;;;3.36;100.00;99930.53;4935076;28;20219;-69
2022/12/22 04:42:21;;;;;;;11.50;7.53;;;;;;;3.37;100.00;99935.69;4942158;28;20590;-69
2022/12/22 04:44:47;;;;;;;12.63;7.70;;;;;;;3.39;100.00;99936.56;4937608;28;20204;-69
2022/12/22 04:47:14;;;;;;;12.43;7.77;;;;;;;3.38;100.00;99926.25;4939192;28;20594;-68
2022/12/22 04:49:40;;;;;;;15.40;8.37;;;;;;;3.43;100.00;99932.25;4941613;28;20548;-69
2022/12/22 04:52:06;;;;;;;13.60;8.03;;;;;;;3.44;100.00;99925.34;4940509;28;20199;-69
2022/12/22 04:54:34;;;;;;;12.40;7.43;;;;;;;3.43;100.00;99929.66;4940224;28;20207;-69
2022/12/22 04:57:00;;;;;;;10.80;7.60;;;;;;;3.46;100.00;99924.47;4937588;28;20222;-69
2022/12/22 04:59:27;;;;;;;14.03;7.77;;;;;;;3.46;100.00;99918.47;4939674;28;20210;-69
2022/12/22 05:01:53;;;;;;;12.93;8.07;;;;;;;3.47;100.00;99920.19;4939902;28;20203;-69
2022/12/22 05:04:19;;;;;;;14.03;8.47;;;;;;;3.49;100.00;99924.44;4954431;28;20218;-69
2022/12/22 05:06:46;;;;;;;10.57;7.23;;;;;;;3.50;100.00;99920.13;4941108;28;20727;-69
2022/12/22 05:09:12;;;;;;;13.70;7.20;;;;;;;3.52;100.00;99916.69;4941177;28;20226;-68
2022/12/22 05:11:40;;;;;;;13.17;7.37;;;;;;;3.53;100.00;99910.66;4933433;28;20217;-69
2022/12/22 05:14:06;;;;;;;12.53;7.47;;;;;;;3.56;100.00;99905.47;4938844;28;20563;-68
2022/12/22 05:16:33;;;;;;;13.77;8.80;;;;;;;3.59;100.00;99896.88;4960271;22;20233;-73
2022/12/22 05:18:59;;;;;;;13.93;7.87;;;;;;;3.59;100.00;99902.03;4984988;28;20209;-71
2022/12/22 05:21:25;;;;;;;13.33;7.17;;;;;;;3.59;100.00;99897.72;4984939;28;20287;-72
2022/12/22 05:23:52;;;;;;;11.63;7.47;;;;;;;3.59;100.00;99895.16;4977744;28;20296;-73
2022/12/22 05:26:19;;;;;;;16.30;9.23;;;;;;;3.60;100.00;99883.94;4979761;28;20217;-73
2022/12/22 05:28:47;;;;;;;12.50;8.27;;;;;;;3.62;100.00;99878.78;4980486;28;20221;-72
2022/12/22 05:31:17;;;;;;;13.70;8.30;;;;;;;3.63;100.00;99885.66;4976501;28;20631;-72
2022/12/22 05:33:43;;;;;;;13.73;7.97;;;;;;;3.64;100.00;99876.19;4977317;28;20233;-72
2022/12/22 05:36:10;;;;;;;13.13;7.77;;;;;;;3.66;100.00;99877.03;4978595;28;20497;-72
2022/12/22 05:38:37;;;;;;;14.00;8.07;;;;;;;3.68;100.00;99870.16;4976465;28;20209;-71
2022/12/22 05:41:03;;;;;;;12.50;8.40;;;;;;;3.72;100.00;99856.34;4978603;28;20211;-73
2022/12/22 05:43:30;;;;;;;15.87;8.20;;;;;;;3.74;100.00;99857.19;4986401;28;20221;-72
2022/12/22 05:46:01;;;;;;;12.57;7.60;;;;;;;3.77;100.00;99855.44;4989811;28;20231;-72
2022/12/22 05:48:28;;;;;;;12.37;7.50;;;;;;;3.79;100.00;99858.00;4981283;28;20663;-73
2022/12/22 05:50:54;;;;;;;13.27;7.93;;;;;;;3.83;100.00;99857.06;4983098;28;20574;-73
2022/12/22 05:53:20;;;;;;;14.60;8.43;;;;;;;3.85;100.00;99857.06;4986177;28;20248;-72
2022/12/22 05:55:47;;;;;;;13.03;7.37;;;;;;;3.89;100.00;99851.03;4980701;28;20272;-73
2022/12/22 05:58:13;;;;;;;16.83;8.57;;;;;;;3.92;100.00;99853.53;4982742;28;20234;-74
2022/12/22 06:00:40;;;;;;;15.10;8.17;;;;;;;3.91;100.00;99855.28;4982014;28;20205;-72
2022/12/22 06:03:08;;;;;;;15.90;7.97;;;;;;;3.92;100.00;99850.97;4980699;28;20227;-73
2022/12/22 06:05:34;;;;;;;12.77;8.23;;;;;;;3.93;100.00;99848.38;4983811;28;20206;-72
2022/12/22 06:08:00;;;;;;;13.17;7.80;;;;;;;3.93;100.00;99855.25;4984121;28;20201;-72
2022/12/22 06:10:27;;;;;;;16.73;8.03;;;;;;;3.95;100.00;99854.38;4979427;28;20202;-73
2022/12/22 06:12:53;;;;;;;13.53;8.33;;;;;;;3.94;100.00;99854.38;4982314;28;20585;-73
2022/12/22 06:15:19;;;;;;;16.53;8.77;;;;;;;3.95;100.00;99845.78;4984851;28;20593;-73
2022/12/22 06:17:46;;;;;;;11.37;7.80;;;;;;;3.97;100.00;99846.59;4979756;28;20230;-73
2022/12/22 06:20:14;;;;;;;13.70;7.97;;;;;;;4.01;100.00;99847.44;4983628;28;20216;-71
2022/12/22 06:22:41;;;;;;;14.50;7.70;;;;;;;4.02;100.00;99842.25;4979439;28;20230;-73
2022/12/22 06:25:08;;;;;;;13.67;6.90;;;;;;;4.03;100.00;99846.56;4979917;28;20598;-70
2022/12/22 06:27:35;;;;;;;13.00;7.50;;;;;;;4.05;100.00;99846.53;4981278;28;20220;-73
2022/12/22 06:30:03;;;;;;;13.80;7.87;;;;;;;4.03;100.00;99837.94;4981172;28;20264;-73
2022/12/22 06:32:29;;;;;;;12.43;7.83;;;;;;;4.03;100.00;99843.97;4984404;28;20229;-73
2022/12/22 06:34:56;;;;;;;12.57;7.67;;;;;;;4.04;100.00;99839.66;4975772;28;20206;-73
2022/12/22 06:37:23;;;;;;;12.77;7.97;;;;;;;4.04;100.00;99832.75;4985805;28;20209;-72
2022/12/22 06:39:50;;;;;;;11.53;7.07;;;;;;;4.06;100.00;99836.19;4983720;28;20209;-73
2022/12/22 06:45:01;;;;;;;11.50;7.20;;;;;;;4.08;100.00;99837.03;4979991;28;20288;-74
2022/12/22 06:47:27;;;;;;;13.77;7.50;;;;;;;4.09;100.00;99831.00;4987470;28;20713;-73
2022/12/22 06:49:54;;;;;;;12.57;7.40;;;;;;;4.10;100.00;99824.13;4979639;28;20205;-71
2022/12/22 06:52:20;;;;;;;11.63;7.33;;;;;;;4.13;100.00;99821.47;4979323;28;20275;-72
2022/12/22 06:54:48;;;;;;;15.07;8.00;;;;;;;4.12;100.00;99820.63;4974513;28;20210;-73
2022/12/22 06:57:14;;;;;;;12.77;8.03;;;;;;;4.16;100.00;99821.44;4976268;28;20211;-73
2022/12/22 06:59:41;;;;;;;12.37;7.57;;;;;;;4.16;100.00;99817.13;4979066;28;20213;-73
2022/12/22 07:02:09;;;;;;;11.27;7.00;;;;;;;4.15;100.00;99812.00;4978357;28;20233;-72
2022/12/22 07:04:36;;;;;;;10.80;6.77;;;;;;;4.16;100.00;99811.97;4976124;28;20718;-73
2022/12/22 07:07:02;;;;;;;12.40;7.20;;;;;;;4.19;100.00;99805.94;4981400;28;20300;-73
2022/12/22 07:09:29;;;;;;;11.90;8.30;;;;;;;4.17;100.00;99810.28;4983679;28;20208;-73
2022/12/22 07:11:57;;;;;;;15.60;7.53;;;;;;;4.18;100.00;99801.63;4980221;28;20597;-71
2022/12/22 07:14:23;;;;;;;11.07;6.97;;;;;;;4.18;100.00;99801.63;4980293;28;20672;-73
2022/12/22 07:16:49;;;;;;;14.07;8.60;;;;;;;4.15;100.00;99804.25;4979691;28;20213;-73
2022/12/22 07:19:16;;;;;;;13.27;8.07;;;;;;;4.15;100.00;99801.66;4981946;28;20714;-73
2022/12/22 07:21:42;;;;;;;12.23;7.20;;;;;;;4.15;100.00;99799.97;4979815;28;20209;-72
2022/12/22 07:24:09;;;;;;;9.90;6.27;;;;;;;4.17;100.00;99800.78;4983440;28;20226;-72
2022/12/22 07:26:35;;;;;;;12.20;7.23;;;;;;;4.20;100.00;99799.03;4979672;28;20259;-71
2022/12/22 07:29:03;;;;;;;11.43;6.87;;;;;;;4.22;100.00;99797.28;4980715;28;20201;-73
2022/12/22 07:31:29;;;;;;;11.03;6.60;;;;;;;4.21;100.00;99791.28;4984272;28;20698;-72
2022/12/22 07:33:56;;;;;;;13.20;7.27;;;;;;;4.22;100.00;99795.59;4976486;28;20776;-73
2022/12/22 07:36:22;;;;;;;9.97;6.87;;;;;;;4.22;100.00;99795.59;4976166;28;20287;-73
2022/12/22 07:38:50;;;;;;;11.20;7.13;;;;;;;4.23;100.00;99789.53;4982771;28;20721;-73
2022/12/22 07:44:07;;;;;;;10.97;7.50;;;;;;;4.24;100.00;99783.50;4979290;28;20334;-73
2022/12/22 07:46:37;;;;;;;12.50;7.77;;;;;;;4.25;100.00;99786.94;4976806;28;20216;-72
2022/12/22 07:51:48;;;;;;;10.17;8.03;;;;;;;4.26;100.00;99771.44;4980855;28;20232;-72
2022/12/22 07:54:15;;;;;;;11.03;7.27;;;;;;;4.29;100.00;99775.69;4984583;28;20232;-73
2022/12/22 07:56:42;;;;;;;11.97;7.60;;;;;;;4.31;100.00;99758.44;4979919;28;20209;-74
2022/12/22 07:59:11;;;;;;;10.00;6.70;;;;;;;4.32;100.00;99758.44;4979954;28;20261;-73
2022/12/22 08:01:39;;;;;;;11.20;6.93;;;;;;;4.33;100.00;99752.41;4980749;28;20206;-73
2022/12/22 08:04:06;;;;;;;12.93;7.53;;;;;;;4.35;100.00;99763.56;4978870;28;20260;-73
2022/12/22 08:06:34;;;;;;;10.80;6.40;;;;;;;4.36;100.00;99762.69;4982852;28;20260;-73
2022/12/22 08:09:00;;;;;;;13.03;7.80;;;;;;;4.36;100.00;99752.38;4980941;28;20194;-70
2022/12/22 08:11:27;;;;;;;12.13;7.83;;;;;;;4.37;100.00;99753.22;4983226;28;20209;-73
2022/12/22 08:13:54;;;;;;;10.10;7.17;;;;;;;4.39;100.00;99750.63;4982572;28;20225;-75
2022/12/22 08:16:22;;;;;;;10.10;7.20;;;;;;;4.41;100.00;99735.94;4982615;28;20712;-75
2022/12/22 08:18:49;;;;;;;10.97;7.87;;;;;;;4.43;100.00;99749.69;4980798;28;20228;-75
2022/12/22 08:21:16;;;;;;;13.43;8.03;;;;;;;4.42;100.00;99735.94;4978590;28;20292;-73
2022/12/22 08:23:43;;;;;;;13.77;8.33;;;;;;;4.46;100.00;99735.00;4981940;28;20228;-72
2022/12/22 08:26:14;;;;;;;12.30;7.63;;;;;;;4.48;100.00;99738.41;4974485;28;20570;-74
2022/12/22 08:28:44;;;;;;;12.70;7.57;;;;;;;4.50;100.00;99734.09;4981278;28;20280;-75
2022/12/22 08:31:11;;;;;;;13.27;7.60;;;;;;;4.52;100.00;99736.63;4982467;28;20209;-73
2022/12/22 08:33:38;;;;;;;12.77;7.60;;;;;;;4.54;100.00;99732.31;4981165;28;20225;-74
2022/12/22 08:36:07;;;;;;;10.63;7.07;;;;;;;4.54;100.00;99732.31;4978751;28;20202;-74
2022/12/22 08:38:34;;;;;;;9.73;7.07;;;;;;;4.55;100.00;99732.25;4978478;28;20300;-75
2022/12/22 08:41:00;;;;;;;12.43;7.63;;;;;;;4.57;100.00;99732.25;4974515;28;20205;-75
2022/12/22 08:43:29;;;;;;;10.67;6.80;;;;;;;4.62;100.00;99729.59;4976261;28;20232;-73
2022/12/22 08:45:56;;;;;;;10.27;6.67;;;;;;;4.64;100.00;99718.34;4977719;28;20228;-72
2022/12/22 08:48:22;;;;;;;9.37;6.77;;;;;;;4.66;100.00;99721.78;4981096;28;20202;-75
2022/12/22 08:50:50;;;;;;;15.23;6.90;;;;;;;4.65;100.00;99724.41;4977893;28;20206;-74
2022/12/22 08:53:16;;;;;;;14.00;7.40;;;;;;;4.70;100.00;99715.69;4979129;28;20236;-74
2022/12/22 08:55:50;;;;;;;11.67;7.00;;;;;;;4.73;100.00;99715.66;4982303;28;20209;-75
2022/12/22 08:58:17;;;;;;;11.27;7.43;;;;;;;4.76;100.00;99706.13;4977279;28;20222;-74
2022/12/22 09:00:43;;;;;;;11.07;7.37;;;;;;;4.77;100.00;99702.66;4978840;28;20205;-75
2022/12/22 09:03:10;;;;;;;11.70;7.27;;;;;;;4.79;100.00;99690.59;4980529;28;20229;-75
2022/12/22 09:05:37;;;;;;;12.27;7.10;;;;;;;4.83;100.00;99702.56;4980658;28;20205;-75
2022/12/22 09:08:05;;;;;;;10.30;6.97;;;;;;;4.83;100.00;99689.66;4981120;28;20665;-75
2022/12/22 09:10:32;;;;;;;10.57;7.00;;;;;;;4.85;100.00;99691.31;4978134;28;20205;-75
2022/12/22 09:12:58;;;;;;;16.37;7.87;;;;;;;4.85;100.00;99688.72;4981007;28;20714;-75
2022/12/22 09:15:25;;;;;;;12.27;8.00;;;;;;;4.86;100.00;99693.03;4975173;28;20225;-72
2022/12/22 09:17:51;;;;;;;9.10;6.50;;;;;;;4.88;100.00;99690.44;4977188;28;20686;-75
2022/12/22 09:20:17;;;;;;;13.20;6.53;;;;;;;4.91;100.00;99688.63;4977547;28;20236;-74
2022/12/22 09:22:44;;;;;;;8.50;6.03;;;;;;;4.96;100.00;99687.69;4980789;28;20239;-75
2022/12/22 09:25:13;;;;;;;9.77;5.80;;;;;;;5.00;100.00;99689.38;4980166;28;20205;-74
2022/12/22 09:27:39;;;;;;;8.73;6.20;;;;;;;5.04;100.00;99680.66;4981464;28;20215;-72
2022/12/22 09:30:07;;;;;;;7.80;5.70;;;;;;;5.06;100.00;99668.56;4978265;28;20212;-73
2022/12/22 09:32:34;;;;;;;7.63;5.50;;;;;;;5.12;100.00;99668.47;4973890;28;20228;-74
2022/12/22 09:35:00;;;;;;;9.10;5.93;;;;;;;5.12;100.00;99663.31;4977093;28;20586;-75
2022/12/22 09:37:27;;;;;;;9.03;6.00;;;;;;;5.18;100.00;99660.59;4974977;28;20201;-74
2022/12/22 09:39:53;;;;;;;8.67;5.70;;;;;;;5.20;100.00;99655.38;4980091;28;20221;-75
2022/12/22 09:42:22;;;;;;;10.70;6.83;;;;;;;5.23;100.00;99657.91;4979898;28;20218;-75
2022/12/22 09:44:51;;;;;;;7.93;5.97;;;;;;;5.25;100.00;99654.41;4980781;28;20197;-72
2022/12/22 09:47:22;;;;;;;11.13;7.33;;;;;;;5.28;100.00;99651.78;4976437;28;20535;-74
2022/12/22 09:49:49;;;;;;;11.43;6.70;;;;;;;5.29;100.00;99652.63;4975451;28;20209;-75
2022/12/22 09:52:26;;;;;;;10.77;6.90;;;;;;;5.29;100.00;99644.84;4974868;28;20655;-75
2022/12/22 09:54:52;;;;;;;11.77;7.27;;;;;;;5.31;100.00;99643.97;4978517;28;20197;-75
2022/12/22 09:57:29;;;;;;;9.77;6.40;;;;;;;5.31;100.00;99633.63;4981940;28;20221;-75
2022/12/22 09:59:56;;;;;;;9.37;6.00;;;;;;;5.35;100.00;99629.25;4975778;28;20245;-74
2022/12/22 10:02:32;;;;;;;9.23;6.10;;;;;;;5.38;100.00;99633.47;4977127;28;20610;-74
2022/12/22 10:05:10;;;;;;;12.30;7.57;;;;;;;5.39;100.00;99628.28;4978990;28;20209;-75
2022/12/22 10:07:38;;;;;;;11.20;7.00;;;;;;;5.42;100.00;99625.66;4980630;28;20205;-72
2022/12/22 10:10:07;;;;;;;10.33;6.70;;;;;;;5.44;100.00;99623.03;4979641;28;20201;-72
2022/12/22 10:12:35;;;;;;;10.20;6.93;;;;;;;5.47;100.00;99625.53;4980233;28;20789;-75
2022/12/22 10:15:01;;;;;;;11.27;7.33;;;;;;;5.50;100.00;99622.88;4980830;28;20316;-75
2022/12/22 10:17:31;;;;;;;10.60;7.23;;;;;;;5.54;100.00;99615.91;4977323;28;20544;-75
2022/12/22 10:20:09;;;;;;;11.03;7.20;;;;;;;5.55;100.00;99607.28;4973773;28;20279;-74
2022/12/22 10:22:46;;;;;;;13.40;7.20;;;;;;;5.54;100.00;99609.03;4983689;28;20228;-73
2022/12/22 10:25:26;;;;;;;13.90;7.47;;;;;;;5.56;100.00;99601.22;4978241;28;20243;-75
2022/12/22 10:27:55;;;;;;;10.40;6.40;;;;;;;5.62;100.00;99593.34;4985291;28;20233;-75
2022/12/22 10:30:24;;;;;;;12.20;6.93;;;;;;;5.66;100.00;99593.25;4982675;28;20619;-74
2022/12/22 10:33:03;;;;;;;9.47;7.03;;;;;;;5.77;100.00;99589.53;4982681;28;20302;-74
2022/12/22 10:35:42;;;;;;;11.13;6.93;;;;;;;5.79;100.00;99596.38;4985498;28;20205;-73
2022/12/22 10:38:18;;;;;;;9.83;6.43;;;;;;;5.85;100.00;99585.88;4979291;28;20209;-75
2022/12/22 10:40:47;;;;;;;11.17;7.17;;;;;;;5.87;100.00;99586.72;4980398;28;20201;-73
2022/12/22 10:43:22;;;;;;;10.70;7.53;;;;;;;5.90;100.00;99590.97;4980755;28;20218;-73
2022/12/22 10:45:50;;;;;;;11.73;6.97;;;;;;;5.90;100.00;99583.19;4984416;28;20201;-74
2022/12/22 10:48:17;;;;;;;15.30;7.77;;;;;;;5.90;100.00;99575.44;4980332;28;20488;-74
2022/12/22 10:50:45;;;;;;;9.80;7.10;;;;;;;5.93;100.00;99575.38;4982981;28;20206;-75
2022/12/22 10:53:12;;;;;;;9.50;6.70;;;;;;;5.98;100.00;99570.09;4978832;28;20217;-73
2022/12/22 10:55:39;;;;;;;11.23;6.63;;;;;;;6.06;100.00;99568.19;4978744;28;20211;-73
2022/12/22 10:58:16;;;;;;;11.63;7.43;;;;;;;6.16;100.00;99567.09;4977993;28;20225;-75
2022/12/22 11:00:59;;;;;;;9.27;6.83;;;;;;;6.20;100.00;99563.53;4980098;28;20237;-73
2022/12/22 11:03:30;;;;;;;12.83;7.87;;;;;;;6.23;100.00;99562.59;5000243;23;20244;-73
2022/12/22 11:05:56;;;;;;;9.00;6.50;;;;;;;6.24;100.00;99564.28;5008724;28;20569;-75
2022/12/22 11:08:24;;;;;;;10.30;6.80;;;;;;;6.25;100.00;99555.66;5008630;28;20215;-73
2022/12/22 11:10:55;;;;;;;11.33;6.20;;;;;;;6.22;100.00;99555.72;5008978;28;20206;-74
2022/12/22 11:13:39;;;;;;;10.83;6.90;;;;;;;6.20;100.00;99542.81;5005468;28;20264;-75
2022/12/22 11:16:14;;;;;;;10.63;6.80;;;;;;;6.15;100.00;99549.00;5007781;28;20528;-74
2022/12/22 11:19:00;;;;;;;11.93;6.73;;;;;;;6.13;100.00;99543.03;5045921;22;20716;-68
2022/12/22 11:21:38;;;;;;;11.57;6.57;;;;;;;6.11;100.00;99537.03;5039900;28;20287;-71
2022/12/22 11:24:17;;;;;;;10.77;7.20;;;;;;;6.11;100.00;99524.09;5036885;28;20214;-71
2022/12/22 11:26:54;;;;;;;9.67;6.13;;;;;;;6.10;100.00;99525.81;5040976;28;20195;-71
2022/12/22 11:29:37;;;;;;;8.67;6.53;;;;;;;6.10;100.00;99512.88;5041086;28;20203;-71
2022/12/22 11:32:23;;;;;;;8.80;5.80;;;;;;;6.06;100.00;99512.09;5052840;28;20298;-71
2022/12/22 11:34:58;;;;;;;9.03;6.03;;;;;;;6.04;100.00;99515.63;5037110;28;20197;-70
2022/12/22 11:37:32;;;;;;;8.90;6.20;;;;;;;6.00;100.00;99504.50;5041721;28;20715;-70
2022/12/22 11:40:10;;;;;;;12.13;6.40;;;;;;;5.99;100.00;99501.97;5041656;28;20213;-70
2022/12/22 11:42:52;;;;;;;11.77;7.23;;;;;;;5.97;100.00;99499.41;5043590;28;20201;-71
2022/12/22 11:45:38;;;;;;;8.80;6.53;;;;;;;5.96;100.00;99495.13;5042843;28;20397;-71
2022/12/22 11:48:22;;;;;;;10.97;6.33;;;;;;;5.95;100.00;99495.13;5034287;28;20220;-71
2022/12/22 11:50:50;;;;;;;7.87;6.30;;;;;;;5.98;100.00;99489.91;5033508;28;20197;-71
2022/12/22 11:53:59;;;;;;;8.83;6.23;;;;;;;6.00;100.00;99488.16;5039251;28;20193;-71
2022/12/22 11:56:32;;;;;;;10.63;6.83;;;;;;;6.05;100.00;99481.94;5031600;28;20700;-71
2022/12/22 11:59:14;;;;;;;12.63;6.53;;;;;;;6.13;100.00;99478.31;5041722;28;20219;-71
2022/12/22 12:02:03;;;;;;;11.07;6.50;;;;;;;6.25;100.00;99475.41;5039269;28;20661;-71
2022/12/22 12:04:48;;;;;;;9.67;6.17;;;;;;;6.39;100.00;99475.03;5035519;28;20216;-71
2022/12/22 12:07:25;;;;;;;11.13;7.00;;;;;;;6.52;100.00;99475.53;5036329;28;20760;-71
2022/12/22 12:10:03;;;;;;;16.90;7.37;;;;;;;6.58;100.00;99475.38;5038246;28;20196;-70
2022/12/22 12:12:38;;;;;;;11.27;7.00;;;;;;;6.64;100.00;99472.59;5039981;28;20212;-71
2022/12/22 12:15:18;;;;;;;9.97;6.57;;;;;;;6.65;100.00;99479.50;5040534;28;20212;-71
2022/12/22 12:18:03;;;;;;;11.37;7.47;;;;;;;6.65;100.00;99476.91;5038238;28;20231;-71
2022/12/22 12:20:44;;;;;;;8.93;6.23;;;;;;;6.62;100.00;99471.81;5038242;28;20701;-70
2022/12/22 12:23:26;;;;;;;12.33;8.23;;;;;;;6.59;100.00;99462.34;5037194;28;20206;-71
2022/12/22 12:26:00;;;;;;;11.03;6.63;;;;;;;6.60;100.00;99466.66;5036272;28;20214;-71
2022/12/22 12:28:40;;;;;;;9.47;6.43;;;;;;;6.61;100.00;99470.09;5036696;28;20216;-70
2022/12/22 12:31:08;;;;;;;8.80;5.60;;;;;;;6.61;100.00;99468.38;5037425;28;20569;-71
2022/12/22 12:33:38;;;;;;;9.20;6.03;;;;;;;6.61;100.00;99464.91;5038201;28;20256;-70
2022/12/22 12:36:14;;;;;;;8.60;5.90;;;;;;;6.60;100.00;99466.66;5039774;28;20291;-71
2022/12/22 12:38:51;;;;;;;9.83;6.10;;;;;;;6.60;100.00;99469.25;5032403;28;20224;-70
2022/12/22 12:41:23;;;;;;;7.60;5.43;;;;;;;6.58;100.00;99463.28;5034150;28;20213;-70
2022/12/22 12:43:52;;;;;;;8.17;5.17;;;;;;;6.59;100.00;99469.28;5033235;28;20248;-71
2022/12/22 12:46:55;;;;;;;10.03;5.57;;;;;;;6.58;100.00;99463.28;5037347;28;20213;-70
2022/12/22 12:49:52;;;;;;;10.50;6.03;;;;;;;6.58;100.00;99465.88;5037796;28;20252;-71
2022/12/22 12:53:13;;;;;;;7.80;5.50;;;;;;;6.59;100.00;99464.94;5039427;28;20204;-70
2022/12/22 12:55:56;;;;;;;9.57;5.80;;;;;;;6.61;100.00;99463.19;5038522;28;21457;-71
2022/12/22 12:58:49;;;;;;;10.73;5.57;;;;;;;6.64;100.00;99464.84;5036886;28;20219;-71
2022/12/22 13:01:54;;;;;;;8.97;6.20;;;;;;;6.63;100.00;99469.16;5035327;28;20567;-70
2022/12/22 13:05:13;;;;;;;8.10;5.90;;;;;;;6.67;100.00;99471.69;5035533;28;20724;-70
2022/12/22 13:08:07;;;;;;;10.67;6.07;;;;;;;6.68;100.00;99466.44;5027981;28;20220;-69
2022/12/22 13:10:36;;;;;;;9.27;6.07;;;;;;;6.71;100.00;99468.94;5033264;28;20205;-71
2022/12/22 13:13:03;;;;;;;10.17;6.90;;;;;;;6.76;100.00;99461.88;5034030;28;20224;-71
2022/12/22 13:15:32;;;;;;;8.63;5.80;;;;;;;6.80;100.00;99457.47;5034252;28;20206;-70
2022/12/22 13:17:59;;;;;;;8.70;5.00;;;;;;;6.81;100.00;99457.44;5033198;28;20236;-71
2022/12/22 13:20:29;;;;;;;9.03;5.83;;;;;;;6.85;100.00;99459.94;5033901;28;20215;-70
2022/12/22 13:22:58;;;;;;;8.57;6.13;;;;;;;6.86;100.00;99464.19;5033592;28;20646;-69
2022/12/22 13:25:40;;;;;;;8.93;5.50;;;;;;;6.82;100.00;99456.53;5029637;28;20712;-70
2022/12/22 13:28:12;;;;;;;8.70;5.53;;;;;;;6.86;100.00;99453.84;5025340;28;20702;-71
2022/12/22 13:30:39;;;;;;;8.60;5.30;;;;;;;6.89;100.00;99464.97;5027004;28;20202;-71
2022/12/22 13:33:11;;;;;;;8.53;5.63;;;;;;;6.88;100.00;99463.28;5029786;28;20191;-70
2022/12/22 13:35:39;;;;;;;7.50;5.47;;;;;;;6.89;100.00;99461.53;5031045;28;20207;-71
2022/12/22 13:38:06;;;;;;;6.50;5.20;;;;;;;6.87;100.00;99460.72;5029747;28;20226;-70
2022/12/22 13:40:41;;;;;;;7.20;4.77;;;;;;;6.85;100.00;99460.78;5028615;28;20225;-71
2022/12/22 13:43:12;;;;;;;8.53;5.23;;;;;;;6.83;100.00;99465.16;5026576;28;20212;-70
2022/12/22 13:45:41;;;;;;;9.27;5.63;;;;;;;6.80;100.00;99460.06;5028421;28;20264;-71
2022/12/22 13:48:13;;;;;;;6.93;5.17;;;;;;;6.81;100.00;99464.34;5028677;28;20237;-71
2022/12/22 13:50:45;;;;;;;6.20;4.40;;;;;;;6.81;100.00;99461.75;5032935;28;20260;-71
2022/12/22 13:53:18;;;;;;;5.57;4.07;;;;;;;6.82;100.00;99460.84;5029366;28;20206;-69
2022/12/22 13:55:48;;;;;;;8.90;4.70;;;;;;;6.82;100.00;99463.44;5017974;28;20224;-69
2022/12/22 13:58:25;;;;;;;7.17;4.07;;;;;;;6.83;100.00;99470.34;5023139;28;20762;-70
2022/12/22 14:01:01;;;;;;;6.10;4.50;;;;;;;6.83;100.00;99471.19;5022521;28;20834;-71
2022/12/22 14:03:28;;;;;;;5.13;4.00;;;;;;;6.81;100.00;99466.94;5028422;28;20205;-69
2022/12/22 14:05:54;;;;;;;7.07;4.50;;;;;;;6.83;100.00;99465.16;5017287;28;20372;-71
2022/12/22 14:08:22;;;;;;;5.33;3.80;;;;;;;6.79;100.00;99469.56;5026307;28;20228;-70
2022/12/22 14:10:52;;;;;;;6.47;4.53;;;;;;;6.79;100.00;99464.41;5024106;28;20282;-70
2022/12/22 14:13:23;;;;;;;6.03;3.63;;;;;;;6.75;100.00;99475.72;5025255;28;20203;-71
2022/12/22 14:15:59;;;;;;;4.70;3.50;;;;;;;6.78;100.00;99472.22;5026322;28;20212;-71
2022/12/22 14:18:26;;;;;;;7.03;4.27;;;;;;;6.75;100.00;99469.69;5023927;28;21458;-70
2022/12/22 14:20:53;;;;;;;6.07;4.10;;;;;;;6.75;100.00;99477.47;5023576;28;22060;-70
2022/12/22 14:23:24;;;;;;;4.97;3.53;;;;;;;6.72;100.00;99475.84;5026939;28;21102;-69
2022/12/22 14:25:54;;;;;;;7.03;4.20;;;;;;;6.72;100.00;99474.97;5027909;28;20206;-70
2022/12/22 14:28:25;;;;;;;8.00;4.60;;;;;;;6.68;100.00;99474.19;5027065;28;20236;-70
2022/12/22 14:30:53;;;;;;;6.13;4.93;;;;;;;6.67;100.00;99476.88;5029217;28;20635;-71
2022/12/22 14:33:28;;;;;;;5.43;4.50;;;;;;;6.67;100.00;99480.28;5031786;28;20219;-70
2022/12/22 14:36:15;;;;;;;8.63;5.57;;;;;;;6.66;100.00;99478.59;5026913;28;20708;-70
2022/12/22 14:38:44;;;;;;;8.33;6.17;;;;;;;6.63;100.00;99482.13;5032997;28;20226;-71
2022/12/22 14:44:01;;;;;;;5.10;4.33;;;;;;;6.66;100.00;99488.09;5033848;28;20221;-70
2022/12/22 14:46:27;;;;;;;7.13;4.97;;;;;;;6.62;100.00;99487.34;5032565;28;20206;-71
2022/12/22 14:48:54;;;;;;;6.43;4.33;;;;;;;6.59;100.00;99485.66;5030212;28;21201;-70
2022/12/22 14:51:20;;;;;;;7.50;4.07;;;;;;;6.59;100.00;99485.66;5030387;28;20200;-70
2022/12/22 14:53:51;;;;;;;6.80;4.50;;;;;;;6.57;100.00;99495.22;5031239;28;20201;-70
2022/12/22 14:56:19;;;;;;;7.47;4.47;;;;;;;6.58;100.00;99493.50;5033177;28;20206;-70
2022/12/22 14:58:48;;;;;;;6.13;4.07;;;;;;;6.57;100.00;99496.97;5032898;28;20292;-71
2022/12/22 15:01:18;;;;;;;11.20;4.47;;;;;;;6.54;100.00;99492.72;5035954;28;20594;-71
2022/12/22 15:03:56;;;;;;;7.17;4.50;;;;;;;6.53;100.00;99498.81;5037617;28;20195;-70
2022/12/22 15:06:33;;;;;;;8.13;4.60;;;;;;;6.55;100.00;99502.19;5036356;28;20556;-71
2022/12/22 15:09:21;;;;;;;7.23;4.73;;;;;;;6.50;100.00;99511.81;5038429;28;20220;-70
2022/12/22 15:11:52;;;;;;;7.90;5.30;;;;;;;6.52;100.00;99504.88;5035064;28;20923;-70
2022/12/22 15:14:21;;;;;;;9.50;5.83;;;;;;;6.49;100.00;99512.75;5036466;28;20205;-71
2022/12/22 15:16:48;;;;;;;8.93;5.33;;;;;;;6.46;100.00;99514.56;5033869;28;20209;-70
2022/12/22 15:19:17;;;;;;;8.17;5.70;;;;;;;6.44;100.00;99514.59;5037007;28;20577;-70
2022/12/22 15:21:44;;;;;;;6.33;4.60;;;;;;;6.44;100.00;99517.19;5041962;28;20221;-71
2022/12/22 15:24:11;;;;;;;6.33;4.63;;;;;;;6.42;100.00;99516.34;5034584;28;20228;-70
2022/12/22 15:26:38;;;;;;;6.33;4.80;;;;;;;6.42;100.00;99521.53;5034697;28;20237;-72
2022/12/22 15:29:06;;;;;;;6.03;4.47;;;;;;;6.42;100.00;99526.72;5036498;28;20244;-70